createdAt,value
2022-08-17T00:00:43.756Z,17.85
2022-08-17T00:03:22.538Z,16.92
2022-08-17T00:05:53.633Z,16.15
2022-08-17T00:08:28.248Z,18.20
2022-08-17T00:10:58.395Z,20.73
2022-08-17T00:13:37.750Z,20.05
2022-08-17T00:16:08.811Z,19.97
2022-08-17T00:19:06.830Z,18.23
2022-08-17T00:22:01.373Z,20.08
2022-08-17T00:24:23.055Z,16.98
2022-08-17T00:26:52.389Z,19.83
2022-08-17T00:29:20.326Z,19.20
2022-08-17T00:31:52.816Z,17.75
2022-08-17T00:34:20.750Z,17.90
2022-08-17T00:36:48.636Z,19.42
2022-08-17T00:39:18.356Z,18.83
2022-08-17T00:41:48.290Z,18.08
2022-08-17T00:44:17.597Z,21.15
2022-08-17T00:46:49.679Z,19.87
2022-08-17T00:49:25.727Z,20.67
2022-08-17T00:51:57.799Z,21.88
2022-08-17T00:54:34.223Z,19.67
2022-08-17T00:57:12.579Z,22.42
2022-08-17T01:00:01.627Z,22.17
2022-08-17T01:02:40.518Z,20.98
2022-08-17T01:05:19.812Z,25.10
2022-08-17T01:07:50.735Z,21.88
2022-08-17T01:10:59.223Z,21.65
2022-08-17T01:13:14.448Z,18.58
2022-08-17T01:15:53.820Z,23.20
2022-08-17T01:18:21.930Z,18.10
2022-08-17T01:20:54.518Z,20.58
2022-08-17T01:23:26.632Z,22.98
2022-08-17T01:25:58.616Z,18.48
2022-08-17T01:28:52.601Z,19.92
2022-08-17T01:31:21.199Z,24.70
2022-08-17T01:33:51.018Z,24.98
2022-08-17T01:36:21.095Z,24.05
2022-08-17T01:38:50.387Z,22.77
2022-08-17T01:41:20.429Z,22.07
2022-08-17T01:43:53.484Z,20.10
2022-08-17T01:46:28.916Z,19.40
2022-08-17T01:48:59.845Z,20.98
2022-08-17T01:51:34.400Z,19.33
2022-08-17T01:54:08.687Z,22.27
2022-08-17T01:56:42.884Z,23.98
2022-08-17T01:59:13.987Z,28.13
2022-08-17T02:01:45.768Z,20.90
2022-08-17T02:04:16.194Z,21.80
2022-08-17T02:06:52.753Z,21.27
2022-08-17T02:09:26.283Z,21.10
2022-08-17T02:12:00.082Z,21.00
2022-08-17T02:14:49.791Z,20.50
2022-08-17T02:17:19.705Z,25.10
2022-08-17T02:19:47.572Z,23.67
2022-08-17T02:22:20.126Z,21.98
2022-08-17T02:24:58.445Z,20.42
2022-08-17T02:27:31.588Z,24.50
2022-08-17T02:30:01.655Z,22.27
2022-08-17T02:32:29.508Z,21.80
2022-08-17T02:34:59.879Z,25.45
2022-08-17T02:40:00.703Z,26.70
2022-08-17T02:42:33.307Z,22.77
2022-08-17T02:45:03.932Z,27.90
2022-08-17T02:47:31.835Z,26.10
2022-08-17T02:50:01.591Z,21.63
2022-08-17T02:52:43.162Z,24.88
2022-08-17T02:55:18.868Z,24.75
2022-08-17T02:57:49.678Z,22.90
2022-08-17T03:00:23.114Z,32.00
2022-08-17T03:02:53.411Z,24.88
2022-08-17T03:07:55.460Z,29.02
2022-08-17T03:10:25.765Z,25.88
2022-08-17T03:15:27.982Z,29.38
2022-08-17T03:17:56.772Z,32.58
2022-08-17T03:20:27.965Z,32.03
2022-08-17T03:23:02.750Z,28.83
2022-08-17T03:25:34.695Z,31.83
2022-08-17T03:28:07.192Z,30.48
2022-08-17T03:30:35.684Z,27.13
2022-08-17T03:33:06.030Z,34.33
2022-08-17T03:38:10.172Z,32.13
2022-08-17T03:40:56.513Z,33.33
2022-08-17T03:43:32.325Z,38.80
2022-08-17T03:46:34.315Z,28.92
2022-08-17T03:49:24.852Z,33.50
2022-08-17T03:52:12.725Z,29.63
2022-08-17T03:55:01.056Z,27.55
2022-08-17T03:57:32.429Z,28.77
2022-08-17T04:00:02.374Z,33.90
2022-08-17T04:02:34.890Z,27.10
2022-08-17T04:05:02.846Z,28.85
2022-08-17T04:07:33.055Z,31.38
2022-08-17T04:10:03.193Z,31.90
2022-08-17T04:12:45.142Z,27.23
2022-08-17T04:15:17.804Z,28.52
2022-08-17T04:17:46.008Z,27.33
2022-08-17T04:20:15.857Z,26.88
2022-08-17T04:22:59.351Z,25.98
2022-08-17T04:25:28.333Z,23.52
2022-08-17T04:27:58.002Z,30.33
2022-08-17T04:30:27.018Z,28.85
2022-08-17T04:33:05.849Z,25.88
2022-08-17T04:35:43.164Z,25.70
2022-08-17T04:38:15.262Z,26.67
2022-08-17T04:41:04.776Z,26.90
2022-08-17T04:43:35.533Z,26.45
2022-08-17T04:46:11.069Z,29.70
2022-08-17T04:48:42.641Z,28.70
2022-08-17T04:51:16.770Z,26.98
2022-08-17T04:53:54.197Z,26.90
2022-08-17T04:56:28.216Z,30.20
2022-08-17T04:58:59.794Z,26.50
2022-08-17T05:01:33.081Z,31.98
2022-08-17T05:04:33.802Z,27.88
2022-08-17T05:06:57.874Z,29.15
2022-08-17T05:09:25.722Z,26.30
2022-08-17T05:11:56.260Z,27.63
2022-08-17T05:14:33.537Z,27.83
2022-08-17T05:17:07.176Z,27.40
2022-08-17T05:19:39.353Z,27.83
2022-08-17T05:22:09.341Z,26.75
2022-08-17T05:24:42.489Z,27.58
2022-08-17T05:27:18.904Z,25.85
2022-08-17T05:29:48.475Z,25.40
2022-08-17T05:32:39.624Z,27.92
2022-08-17T05:35:08.801Z,28.85
2022-08-17T05:37:40.958Z,26.70
2022-08-17T05:40:09.954Z,32.35
2022-08-17T05:42:37.801Z,27.90
2022-08-17T05:45:12.493Z,28.30
2022-08-17T05:47:41.279Z,28.52
2022-08-17T05:50:10.502Z,28.58
2022-08-17T05:52:56.435Z,28.15
2022-08-17T05:55:35.942Z,29.48
2022-08-17T05:58:20.461Z,26.10
2022-08-17T06:01:03.411Z,26.90
2022-08-17T06:03:46.009Z,24.30
2022-08-17T06:06:31.351Z,25.67
2022-08-17T06:09:13.405Z,23.35
2022-08-17T06:11:48.150Z,25.33
2022-08-17T06:14:46.301Z,23.98
2022-08-17T06:17:20.706Z,24.73
2022-08-17T06:19:55.066Z,20.33
2022-08-17T06:22:29.149Z,22.52
2022-08-17T06:25:03.455Z,20.17
2022-08-17T06:27:37.908Z,22.27
2022-08-17T06:30:09.998Z,21.70
2022-08-17T06:32:46.510Z,21.13
2022-08-17T06:35:18.876Z,21.48
2022-08-17T06:38:05.919Z,20.65
2022-08-17T06:40:57.273Z,20.05
2022-08-17T06:43:46.228Z,20.85
2022-08-17T06:46:23.010Z,21.25
2022-08-17T06:49:09.944Z,20.63
2022-08-17T06:51:41.472Z,21.08
2022-08-17T06:54:15.555Z,20.65
2022-08-17T06:56:53.089Z,20.48
2022-08-17T06:59:54.501Z,19.90
2022-08-17T07:02:29.120Z,18.98
2022-08-17T07:05:20.072Z,17.15
2022-08-17T07:08:04.269Z,20.23
2022-08-17T07:10:39.176Z,17.70
2022-08-17T07:13:35.095Z,18.27
2022-08-17T07:16:16.639Z,18.73
2022-08-17T07:18:45.143Z,18.20
2022-08-17T07:21:29.015Z,19.80
2022-08-17T07:24:12.096Z,17.67
2022-08-17T07:27:10.094Z,17.70
2022-08-17T07:29:44.019Z,16.67
2022-08-17T07:32:20.381Z,18.02
2022-08-17T07:35:21.077Z,16.08
2022-08-17T07:38:25.310Z,15.38
2022-08-17T07:41:03.747Z,17.80
2022-08-17T07:43:38.364Z,16.23
2022-08-17T07:46:33.319Z,14.93
2022-08-17T07:49:37.032Z,16.17
2022-08-17T07:52:24.111Z,15.02
2022-08-17T07:54:59.751Z,15.15
2022-08-17T07:57:32.429Z,13.57
2022-08-17T08:00:31.766Z,15.00
2022-08-17T08:05:52.282Z,14.30
2022-08-17T08:08:26.148Z,14.35
2022-08-17T08:11:03.573Z,13.88
2022-08-17T08:13:33.290Z,14.45
2022-08-17T08:16:26.084Z,16.25
2022-08-17T08:18:57.941Z,13.93
2022-08-17T08:21:39.590Z,13.63
2022-08-17T08:24:30.027Z,13.30
2022-08-17T08:27:12.534Z,14.70
2022-08-17T08:29:52.740Z,13.02
2022-08-17T08:32:28.693Z,12.70
2022-08-17T08:37:44.303Z,16.05
2022-08-17T08:40:31.520Z,12.63
2022-08-17T08:43:13.533Z,15.32
2022-08-17T08:45:50.931Z,14.98
2022-08-17T08:48:56.396Z,12.25
2022-08-17T08:51:27.867Z,14.48
2022-08-17T08:54:05.309Z,13.07
2022-08-17T08:56:38.298Z,13.50
2022-08-17T08:59:19.462Z,13.38
2022-08-17T09:02:02.181Z,14.75
2022-08-17T09:05:12.978Z,13.65
2022-08-17T09:07:48.058Z,14.27
2022-08-17T09:10:26.614Z,13.88
2022-08-17T09:13:09.939Z,14.25
2022-08-17T09:15:45.549Z,12.60
2022-08-17T09:19:03.100Z,13.23
2022-08-17T09:21:11.474Z,12.10
2022-08-17T09:23:44.868Z,13.68
2022-08-17T09:26:22.153Z,13.93
2022-08-17T09:28:52.902Z,13.13
2022-08-17T09:31:33.144Z,14.93
2022-08-17T09:34:04.567Z,13.65
2022-08-17T09:36:39.322Z,13.05
2022-08-17T09:39:12.057Z,12.35
2022-08-17T09:41:49.582Z,11.73
2022-08-17T09:44:27.336Z,12.13
2022-08-17T09:47:06.498Z,13.00
2022-08-17T09:49:39.323Z,13.38
2022-08-17T09:52:16.518Z,13.55
2022-08-17T09:54:47.450Z,14.15
2022-08-17T09:57:31.020Z,12.07
2022-08-17T10:00:17.042Z,11.10
2022-08-17T10:03:11.921Z,12.50
2022-08-17T10:05:46.373Z,11.25
2022-08-17T10:08:25.740Z,10.57
2022-08-17T10:11:06.959Z,12.35
2022-08-17T10:13:52.792Z,11.43
2022-08-17T10:16:30.539Z,10.45
2022-08-17T10:19:10.674Z,12.63
2022-08-17T10:22:00.787Z,10.77
2022-08-17T10:25:21.282Z,9.68
2022-08-17T10:27:48.985Z,11.00
2022-08-17T10:30:21.726Z,8.50
2022-08-17T10:32:55.377Z,10.73
2022-08-17T10:35:34.193Z,8.35
2022-08-17T10:38:34.151Z,10.00
2022-08-17T10:41:08.206Z,10.15
2022-08-17T10:44:37.398Z,12.98
2022-08-17T10:49:26.831Z,10.77
2022-08-17T10:51:57.886Z,8.93
2022-08-17T10:54:58.550Z,10.15
2022-08-17T10:57:42.177Z,9.75
2022-08-17T11:00:15.508Z,8.75
2022-08-17T11:02:52.066Z,12.52
2022-08-17T11:05:44.384Z,10.32
2022-08-17T11:08:44.873Z,9.05
2022-08-17T11:11:26.705Z,9.32
2022-08-17T11:14:15.936Z,9.02
2022-08-17T11:17:01.074Z,9.45
2022-08-17T11:19:56.294Z,10.18
2022-08-17T11:22:46.190Z,8.55
2022-08-17T11:25:20.241Z,9.07
2022-08-17T11:27:53.837Z,10.40
2022-08-17T11:30:50.481Z,9.90
2022-08-17T11:33:53.514Z,7.70
2022-08-17T11:37:02.565Z,10.90
2022-08-17T11:39:54.459Z,9.00
2022-08-17T11:42:38.779Z,11.25
2022-08-17T11:45:32.181Z,8.32
2022-08-17T11:48:33.686Z,11.13
2022-08-17T11:51:42.036Z,9.27
2022-08-17T11:54:32.156Z,10.02
2022-08-17T11:57:52.351Z,8.00
2022-08-17T12:00:56.471Z,11.60
2022-08-17T12:03:53.953Z,10.43
2022-08-17T12:06:32.189Z,8.90
2022-08-17T12:09:07.521Z,8.70
2022-08-17T12:11:58.731Z,8.48
2022-08-17T12:15:07.911Z,7.30
2022-08-17T12:17:52.275Z,6.78
2022-08-17T12:20:24.103Z,7.60
2022-08-17T12:23:04.585Z,6.88
2022-08-17T12:25:39.095Z,9.57
2022-08-17T12:28:29.928Z,6.43
2022-08-17T12:31:02.455Z,7.43
2022-08-17T12:33:39.015Z,6.07
2022-08-17T12:36:10.196Z,11.43
2022-08-17T12:38:39.245Z,6.00
2022-08-17T12:41:25.553Z,6.82
2022-08-17T12:44:01.720Z,10.20
2022-08-17T12:46:33.688Z,8.23
2022-08-17T12:49:25.627Z,7.00
2022-08-17T12:52:18.471Z,9.68
2022-08-17T12:54:56.223Z,7.35
2022-08-17T12:57:28.402Z,7.68
2022-08-17T13:00:02.248Z,5.80
2022-08-17T13:02:38.781Z,7.43
2022-08-17T13:05:21.442Z,8.93
2022-08-17T13:07:52.691Z,9.40
2022-08-17T13:10:32.137Z,10.63
2022-08-17T13:15:44.374Z,8.05
2022-08-17T13:18:39.293Z,7.13
2022-08-17T13:21:27.799Z,6.63
2022-08-17T13:23:59.018Z,7.53
2022-08-17T13:26:34.373Z,6.75
2022-08-17T13:29:05.876Z,6.05
2022-08-17T13:31:52.012Z,6.97
2022-08-17T13:35:08.961Z,6.60
2022-08-17T13:37:33.485Z,8.15
2022-08-17T13:40:08.076Z,7.97
2022-08-17T13:42:52.830Z,7.70
2022-08-17T13:45:39.662Z,8.20
2022-08-17T13:48:13.690Z,9.95
2022-08-17T13:50:46.919Z,6.93
2022-08-17T13:53:23.288Z,6.97
2022-08-17T13:55:57.237Z,6.45
2022-08-17T13:58:30.405Z,9.15
2022-08-17T14:00:58.567Z,8.60
2022-08-17T14:03:26.494Z,6.35
2022-08-17T14:05:54.558Z,9.13
2022-08-17T14:08:24.053Z,8.55
2022-08-17T14:10:59.335Z,6.85
2022-08-17T14:13:28.739Z,7.68
2022-08-17T14:15:56.869Z,6.90
2022-08-17T14:18:34.277Z,10.63
2022-08-17T14:21:15.118Z,7.63
2022-08-17T14:23:54.345Z,15.77
2022-08-17T14:28:56.462Z,6.95
2022-08-17T14:31:25.315Z,8.27
2022-08-17T14:33:53.729Z,9.27
2022-08-17T14:36:21.628Z,8.55
2022-08-17T14:38:51.024Z,9.90
2022-08-17T14:41:22.279Z,8.48
2022-08-17T14:43:53.973Z,8.10
2022-08-17T14:46:23.649Z,8.52
2022-08-17T14:48:57.213Z,11.45
2022-08-17T14:51:29.429Z,7.10
2022-08-17T14:53:58.847Z,7.20
2022-08-17T14:56:27.371Z,7.50
2022-08-17T14:58:59.926Z,7.88
2022-08-17T15:01:29.966Z,8.52
2022-08-17T15:03:57.789Z,9.40
2022-08-17T15:06:27.839Z,8.27
2022-08-17T15:08:59.146Z,7.82
2022-08-17T15:11:27.011Z,9.68
2022-08-17T15:13:57.179Z,11.10
2022-08-17T15:16:27.145Z,8.20
2022-08-17T15:21:23.287Z,14.77
2022-08-17T15:24:15.421Z,7.93
2022-08-17T15:26:45.179Z,8.35
2022-08-17T15:29:12.975Z,8.98
2022-08-17T15:31:43.001Z,7.18
2022-08-17T15:34:12.824Z,10.13
2022-08-17T15:36:49.164Z,9.00
2022-08-17T15:39:20.683Z,9.38
2022-08-17T15:41:58.597Z,10.35
2022-08-17T15:44:32.756Z,6.85
2022-08-17T15:47:03.016Z,8.25
2022-08-17T15:49:35.671Z,8.10
2022-08-17T15:52:16.899Z,8.55
2022-08-17T15:54:50.742Z,10.02
2022-08-17T15:57:19.090Z,6.75
2022-08-17T15:59:53.988Z,6.78
2022-08-17T16:03:13.944Z,6.57
2022-08-17T16:05:21.947Z,9.45
2022-08-17T16:07:55.118Z,10.65
2022-08-17T16:10:34.575Z,7.20
2022-08-17T16:13:05.239Z,6.47
2022-08-17T16:15:45.254Z,8.75
2022-08-17T16:18:19.191Z,6.00
2022-08-17T16:20:49.288Z,5.78
2022-08-17T16:23:20.182Z,6.40
2022-08-17T16:25:53.617Z,8.07
2022-08-17T16:28:36.286Z,9.38
2022-08-17T16:31:08.073Z,6.57
2022-08-17T16:33:37.415Z,7.97
2022-08-17T16:36:05.623Z,8.73
2022-08-17T16:38:35.752Z,7.60
2022-08-17T16:41:05.719Z,7.00
2022-08-17T16:46:05.886Z,7.10
2022-08-17T16:48:33.733Z,7.57
2022-08-17T16:51:04.325Z,9.80
2022-08-17T16:53:39.147Z,8.43
2022-08-17T16:56:08.409Z,7.80
2022-08-17T16:58:37.660Z,7.82
2022-08-17T17:01:12.145Z,6.70
2022-08-17T17:03:43.886Z,8.27
2022-08-17T17:06:19.461Z,6.43
2022-08-17T17:08:53.109Z,7.82
2022-08-17T17:11:35.949Z,12.23
2022-08-17T17:14:07.140Z,7.80
2022-08-17T17:16:45.828Z,6.70
2022-08-17T17:19:34.680Z,8.25
2022-08-17T17:22:13.039Z,8.63
2022-08-17T17:24:52.702Z,9.68
2022-08-17T17:27:33.074Z,8.00
2022-08-17T17:30:08.948Z,10.48
2022-08-17T17:32:40.844Z,8.13
2022-08-17T17:35:12.877Z,8.73
2022-08-17T17:37:45.733Z,7.72
2022-08-17T17:40:19.100Z,7.65
2022-08-17T17:42:49.826Z,8.88
2022-08-17T17:45:23.952Z,10.40
2022-08-17T17:47:52.368Z,8.38
2022-08-17T17:50:27.050Z,8.02
2022-08-17T17:53:02.750Z,8.07
2022-08-17T17:55:48.851Z,8.57
2022-08-17T17:58:35.722Z,10.82
2022-08-17T18:01:20.335Z,10.48
2022-08-17T18:03:59.155Z,9.68
2022-08-17T18:06:39.767Z,12.35
2022-08-17T18:09:23.911Z,7.60
2022-08-17T18:12:09.215Z,11.35
2022-08-17T18:14:52.823Z,7.07
2022-08-17T18:17:20.631Z,7.63
2022-08-17T18:19:50.787Z,8.65
2022-08-17T18:22:23.601Z,8.88
2022-08-17T18:24:55.914Z,8.32
2022-08-17T18:27:28.534Z,9.98
2022-08-17T18:29:59.548Z,8.93
2022-08-17T18:32:39.017Z,7.78
2022-08-17T18:35:32.584Z,8.18
2022-08-17T18:38:25.149Z,9.57
2022-08-17T18:41:03.872Z,7.90
2022-08-17T18:43:52.787Z,9.95
2022-08-17T18:46:30.155Z,8.13
2022-08-17T18:49:03.503Z,10.80
2022-08-17T18:51:40.953Z,10.80
2022-08-17T18:54:21.498Z,8.63
2022-08-17T18:56:54.902Z,8.00
2022-08-17T18:59:30.124Z,8.45
2022-08-17T19:05:14.520Z,10.95
2022-08-17T19:07:46.731Z,9.43
2022-08-17T19:10:27.183Z,10.98
2022-08-17T19:13:12.406Z,8.68
2022-08-17T19:15:46.979Z,9.25
2022-08-17T19:18:41.640Z,9.13
2022-08-17T19:21:16.564Z,9.35
2022-08-17T19:23:53.800Z,12.30
2022-08-17T19:26:53.853Z,11.55
2022-08-17T19:29:25.760Z,10.88
2022-08-17T19:31:55.400Z,9.73
2022-08-17T19:34:30.167Z,9.85
2022-08-17T19:37:09.051Z,10.85
2022-08-17T19:39:47.853Z,11.05
2022-08-17T19:42:36.102Z,11.65
2022-08-17T19:45:14.107Z,9.80
2022-08-17T19:47:55.125Z,10.90
2022-08-17T19:50:38.427Z,10.93
2022-08-17T19:53:18.688Z,10.40
2022-08-17T19:55:56.721Z,11.00
2022-08-17T19:58:37.534Z,13.55
2022-08-17T20:01:08.792Z,14.07
2022-08-17T20:03:53.283Z,12.65
2022-08-17T20:06:24.020Z,11.85
2022-08-17T20:08:59.959Z,11.48
2022-08-17T20:11:35.311Z,14.95
2022-08-17T20:14:11.414Z,13.15
2022-08-17T20:16:39.295Z,14.30
2022-08-17T20:19:15.728Z,11.57
2022-08-17T20:21:53.784Z,17.48
2022-08-17T20:24:31.706Z,16.10
2022-08-17T20:27:13.693Z,12.52
2022-08-17T20:30:05.858Z,12.93
2022-08-17T20:32:50.177Z,13.88
2022-08-17T20:35:28.805Z,12.98
2022-08-17T20:38:03.990Z,13.15
2022-08-17T20:40:40.422Z,13.15
2022-08-17T20:43:49.054Z,12.27
2022-08-17T20:46:29.520Z,12.68
2022-08-17T20:49:01.075Z,12.95
2022-08-17T20:51:35.087Z,13.43
2022-08-17T20:54:36.647Z,13.98
2022-08-17T20:57:06.094Z,13.60
2022-08-17T21:00:01.275Z,13.77
2022-08-17T21:02:30.096Z,13.00
2022-08-17T21:05:15.909Z,12.80
2022-08-17T21:07:56.641Z,13.95
2022-08-17T21:10:38.784Z,14.52
2022-08-17T21:13:44.261Z,15.40
2022-08-17T21:16:40.186Z,14.38
2022-08-17T21:19:31.244Z,14.07
2022-08-17T21:22:13.452Z,16.02
2022-08-17T21:24:54.199Z,15.07
2022-08-17T21:27:35.758Z,14.95
2022-08-17T21:30:24.923Z,14.65
2022-08-17T21:33:20.258Z,18.80
2022-08-17T21:35:58.684Z,17.13
2022-08-17T21:38:35.524Z,15.75
2022-08-17T21:41:08.151Z,16.00
2022-08-17T21:43:38.011Z,15.73
2022-08-17T21:46:15.416Z,18.58
2022-08-17T21:48:45.760Z,18.55
2022-08-17T21:51:23.465Z,18.73
2022-08-17T21:53:53.565Z,17.83
2022-08-17T21:56:27.874Z,18.52
2022-08-17T21:59:00.765Z,19.13
2022-08-17T22:01:37.280Z,19.85
2022-08-17T22:04:19.016Z,18.38
2022-08-17T22:06:57.263Z,18.15
2022-08-17T22:09:28.482Z,19.70
2022-08-17T22:12:04.188Z,18.58
2022-08-17T22:14:51.470Z,18.33
2022-08-17T22:17:27.881Z,17.88
2022-08-17T22:19:59.191Z,18.20
2022-08-17T22:22:37.066Z,18.77
2022-08-17T22:25:07.239Z,19.40
2022-08-17T22:27:56.113Z,19.95
2022-08-17T22:30:34.865Z,18.90
2022-08-17T22:33:38.118Z,19.45
2022-08-17T22:36:12.062Z,18.48
2022-08-17T22:38:43.851Z,18.45
2022-08-17T22:41:32.052Z,17.35
2022-08-17T22:44:09.336Z,18.63
2022-08-17T22:46:42.501Z,19.27
2022-08-17T22:49:14.001Z,18.88
2022-08-17T22:51:41.834Z,19.25
2022-08-17T22:54:39.079Z,19.95
2022-08-17T22:57:32.149Z,19.27
2022-08-17T23:00:05.517Z,18.75
2022-08-17T23:02:35.477Z,19.55
2022-08-17T23:05:27.363Z,18.35
2022-08-17T23:07:55.188Z,20.05
2022-08-17T23:10:23.037Z,19.05
2022-08-17T23:12:55.161Z,19.58
2022-08-17T23:15:23.423Z,19.58
2022-08-17T23:17:51.576Z,19.15
2022-08-17T23:20:24.973Z,18.80
2022-08-17T23:22:53.179Z,20.05
2022-08-17T23:25:31.810Z,20.10
2022-08-17T23:28:02.359Z,19.13
2022-08-17T23:30:36.600Z,19.95
2022-08-17T23:33:08.482Z,20.40
2022-08-17T23:35:41.393Z,20.00
2022-08-17T23:38:10.193Z,19.73
2022-08-17T23:40:39.717Z,20.20
2022-08-17T23:43:24.705Z,20.45
2022-08-17T23:45:57.540Z,20.20
2022-08-17T23:48:35.715Z,20.95
2022-08-17T23:51:09.102Z,21.35
2022-08-17T23:53:46.189Z,21.95
2022-08-17T23:56:14.436Z,22.77
2022-08-17T23:58:44.795Z,22.50
